createdAt,value
2023-05-14T00:01:38.971Z,79.50
2023-05-14T00:11:44.459Z,79.91
2023-05-14T00:21:50.089Z,80.48
2023-05-14T00:31:55.877Z,79.90
2023-05-14T00:42:01.428Z,79.68
2023-05-14T00:52:07.187Z,79.52
2023-05-14T01:02:13.153Z,79.41
2023-05-14T01:12:18.589Z,79.34
2023-05-14T01:22:24.677Z,79.18
2023-05-14T01:32:30.232Z,79.01
2023-05-14T01:42:35.529Z,78.95
2023-05-14T01:52:41.174Z,78.84
2023-05-14T02:02:46.818Z,79.05
2023-05-14T02:12:52.369Z,79.16
2023-05-14T02:22:58.198Z,79.86
2023-05-14T02:33:04.096Z,79.74
2023-05-14T02:43:10.078Z,79.48
2023-05-14T02:53:16.053Z,79.29
2023-05-14T03:03:21.462Z,79.43
2023-05-14T03:13:27.490Z,79.14
2023-05-14T03:23:31.129Z,81.20
2023-05-14T03:33:38.521Z,80.33
2023-05-14T03:43:45.136Z,78.80
2023-05-14T03:53:51.104Z,77.84
2023-05-14T04:03:57.228Z,77.41
2023-05-14T04:14:02.752Z,76.93
2023-05-14T04:24:08.630Z,76.54
2023-05-14T04:34:14.314Z,76.24
2023-05-14T04:44:19.857Z,75.82
2023-05-14T04:54:25.860Z,75.03
2023-05-14T05:04:31.969Z,75.03
2023-05-14T05:14:37.638Z,74.46
2023-05-14T05:24:43.387Z,74.48
2023-05-14T05:34:48.716Z,74.21
2023-05-14T05:44:54.559Z,73.59
2023-05-14T05:55:00.049Z,73.40
2023-05-14T06:05:06.189Z,71.49
2023-05-14T06:15:11.941Z,70.87
2023-05-14T06:25:17.917Z,70.77
2023-05-14T06:35:23.537Z,70.32
2023-05-14T06:45:30.708Z,70.01
2023-05-14T06:55:37.881Z,69.83
2023-05-14T07:05:43.217Z,69.83
2023-05-14T07:15:49.202Z,69.50
2023-05-14T07:25:55.022Z,69.15
2023-05-14T07:36:00.659Z,69.00
2023-05-14T07:46:06.091Z,68.07
2023-05-14T07:56:11.890Z,68.09
2023-05-14T08:06:17.823Z,67.60
2023-05-14T08:16:23.799Z,66.74
2023-05-14T08:26:29.403Z,67.36
2023-05-14T08:36:35.018Z,66.70
2023-05-14T08:46:40.387Z,66.58
2023-05-14T08:56:45.959Z,66.83
2023-05-14T09:06:51.269Z,68.04
2023-05-14T09:16:57.310Z,68.21
2023-05-14T09:27:03.648Z,68.31
2023-05-14T09:37:09.536Z,69.07
2023-05-14T09:47:15.079Z,69.62
2023-05-14T09:57:20.843Z,69.81
2023-05-14T10:07:26.238Z,69.88
2023-05-14T10:17:31.563Z,69.79
2023-05-14T10:27:37.677Z,70.66
2023-05-14T10:37:43.622Z,71.02
2023-05-14T10:47:49.836Z,71.01
2023-05-14T10:57:55.393Z,71.55
2023-05-14T11:08:00.968Z,71.91
2023-05-14T11:18:06.690Z,71.86
2023-05-14T11:28:12.853Z,71.66
2023-05-14T11:38:18.382Z,72.04
2023-05-14T11:48:23.850Z,72.27
2023-05-14T11:58:29.782Z,72.26
2023-05-14T12:08:35.343Z,72.37
2023-05-14T12:18:40.996Z,72.41
2023-05-14T12:28:47.028Z,72.61
2023-05-14T12:38:52.963Z,72.70
2023-05-14T12:48:58.944Z,72.85
2023-05-14T12:59:04.468Z,73.00
2023-05-14T13:09:10.198Z,72.96
2023-05-14T13:19:15.895Z,73.03
2023-05-14T13:29:21.988Z,73.02
2023-05-14T13:39:28.093Z,73.09
2023-05-14T13:49:33.995Z,73.19
2023-05-14T13:59:39.911Z,73.16
2023-05-14T14:09:45.737Z,73.23
2023-05-14T14:19:51.589Z,73.26
2023-05-14T14:29:57.278Z,73.34
2023-05-14T14:40:02.937Z,73.43
2023-05-14T14:50:08.454Z,73.46
2023-05-14T15:00:14.346Z,73.64
2023-05-14T15:10:20.219Z,73.70
2023-05-14T15:20:26.224Z,73.87
2023-05-14T15:30:32.123Z,73.89
2023-05-14T15:40:38.069Z,73.77
2023-05-14T15:50:43.687Z,73.84
2023-05-14T16:00:49.409Z,74.08
2023-05-14T16:10:54.969Z,74.21
2023-05-14T16:21:01.057Z,74.34
2023-05-14T16:31:06.446Z,74.26
2023-05-14T16:41:12.358Z,74.24
2023-05-14T16:51:17.953Z,74.26
2023-05-14T17:01:23.602Z,74.51
2023-05-14T17:11:29.503Z,74.57
2023-05-14T17:21:35.144Z,74.38
2023-05-14T17:31:40.974Z,74.22
2023-05-14T17:41:46.821Z,74.21
2023-05-14T17:51:52.521Z,74.24
2023-05-14T18:01:58.244Z,76.75
2023-05-14T18:12:04.299Z,77.27
2023-05-14T18:22:10.119Z,77.52
2023-05-14T18:32:15.794Z,76.69
2023-05-14T18:42:21.372Z,79.17
2023-05-14T18:52:25.964Z,99.54
2023-05-14T19:02:31.307Z,91.42
2023-05-14T19:12:38.715Z,83.39
2023-05-14T19:22:44.721Z,82.24
2023-05-14T19:32:50.715Z,81.24
2023-05-14T19:42:56.331Z,80.45
2023-05-14T19:53:02.294Z,80.31
2023-05-14T20:03:08.283Z,80.84
2023-05-14T20:13:14.369Z,80.89
2023-05-14T20:23:20.275Z,81.03
2023-05-14T20:33:26.113Z,81.05
2023-05-14T20:43:31.718Z,81.05
2023-05-14T20:53:37.491Z,81.49
2023-05-14T21:03:43.749Z,81.43
2023-05-14T21:13:49.952Z,81.39
2023-05-14T21:23:55.750Z,81.25
2023-05-14T21:34:01.155Z,81.13
2023-05-14T21:44:06.610Z,81.00
2023-05-14T21:54:12.110Z,80.98
2023-05-14T22:04:17.899Z,81.36
2023-05-14T22:14:24.177Z,81.17
2023-05-14T22:24:30.271Z,81.11
2023-05-14T22:34:36.345Z,80.94
2023-05-14T22:44:42.182Z,80.96
2023-05-14T22:54:47.914Z,81.24
2023-05-14T23:04:53.467Z,81.66
2023-05-14T23:14:59.028Z,81.69
2023-05-14T23:25:04.688Z,81.57
2023-05-14T23:35:09.955Z,81.43
2023-05-14T23:45:15.670Z,81.62
2023-05-14T23:55:21.300Z,81.60
